createdAt,value
2023-12-27T00:00:08.890Z,6.40
2023-12-27T00:02:36.464Z,6.35
2023-12-27T00:05:04.081Z,6.35
2023-12-27T00:07:31.662Z,7.95
2023-12-27T00:09:59.246Z,7.32
2023-12-27T00:12:27.031Z,6.50
2023-12-27T00:14:56.017Z,8.10
2023-12-27T00:17:23.687Z,7.40
2023-12-27T00:19:51.353Z,7.10
2023-12-27T00:22:19.146Z,6.40
2023-12-27T00:24:46.739Z,6.63
2023-12-27T00:27:14.373Z,5.82
2023-12-27T00:29:42.083Z,6.32
2023-12-27T00:32:12.457Z,6.05
2023-12-27T00:34:40.938Z,5.07
2023-12-27T00:37:08.787Z,5.00
2023-12-27T00:39:36.453Z,4.65
2023-12-27T00:42:04.396Z,4.43
2023-12-27T00:44:32.068Z,4.07
2023-12-27T00:46:59.919Z,4.60
2023-12-27T00:49:28.935Z,5.03
2023-12-27T00:51:56.649Z,5.25
2023-12-27T00:54:24.259Z,5.25
2023-12-27T00:56:52.484Z,5.40
2023-12-27T00:59:20.119Z,4.88
2023-12-27T01:01:48.121Z,4.82
2023-12-27T01:04:15.905Z,4.32
2023-12-27T01:06:45.074Z,4.03
2023-12-27T01:09:12.727Z,4.75
2023-12-27T01:11:40.415Z,4.32
2023-12-27T01:14:08.097Z,5.35
2023-12-27T01:16:35.686Z,4.82
2023-12-27T01:19:03.561Z,4.63
2023-12-27T01:21:31.292Z,6.20
2023-12-27T01:24:00.460Z,6.35
2023-12-27T01:26:28.115Z,6.38
2023-12-27T01:28:55.708Z,5.85
2023-12-27T01:31:23.416Z,5.93
2023-12-27T01:33:51.348Z,5.90
2023-12-27T01:36:21.171Z,6.32
2023-12-27T01:38:48.896Z,7.20
2023-12-27T01:41:17.952Z,7.60
2023-12-27T01:43:45.639Z,6.60
2023-12-27T01:46:13.316Z,7.05
2023-12-27T01:48:41.645Z,11.05
2023-12-27T01:51:09.488Z,9.43
2023-12-27T01:53:37.161Z,7.80
2023-12-27T01:56:04.936Z,8.32
2023-12-27T01:58:34.120Z,6.78
2023-12-27T02:01:02.137Z,5.80
2023-12-27T02:03:30.342Z,4.50
2023-12-27T02:05:59.271Z,4.13
2023-12-27T02:08:27.098Z,4.03
2023-12-27T02:10:54.755Z,3.55
2023-12-27T02:13:22.773Z,4.63
2023-12-27T02:15:52.738Z,4.03
2023-12-27T02:18:21.304Z,5.65
2023-12-27T02:20:49.232Z,7.03
2023-12-27T02:23:19.824Z,6.22
2023-12-27T02:25:50.337Z,5.28
2023-12-27T02:28:17.963Z,6.20
2023-12-27T02:30:45.692Z,6.60
2023-12-27T02:33:13.584Z,7.13
2023-12-27T02:35:41.602Z,7.15
2023-12-27T02:38:09.307Z,6.28
2023-12-27T02:40:37.029Z,5.53
2023-12-27T02:43:06.062Z,4.60
2023-12-27T02:45:33.745Z,4.95
2023-12-27T02:48:01.831Z,4.85
2023-12-27T02:50:29.694Z,4.97
2023-12-27T02:52:57.281Z,4.05
2023-12-27T02:55:24.836Z,3.65
2023-12-27T02:57:52.457Z,4.25
2023-12-27T03:00:21.528Z,4.40
2023-12-27T03:02:49.161Z,4.80
2023-12-27T03:05:16.776Z,5.60
2023-12-27T03:07:44.370Z,5.50
2023-12-27T03:10:13.213Z,5.55
2023-12-27T03:12:40.825Z,5.80
2023-12-27T03:15:09.116Z,6.20
2023-12-27T03:17:38.129Z,6.72
2023-12-27T03:20:06.000Z,5.57
2023-12-27T03:22:33.581Z,6.47
2023-12-27T03:25:01.208Z,5.65
2023-12-27T03:27:29.291Z,5.57
2023-12-27T03:29:57.006Z,6.72
2023-12-27T03:32:25.146Z,6.60
2023-12-27T03:34:54.093Z,6.57
2023-12-27T03:37:21.680Z,6.72
2023-12-27T03:39:51.968Z,5.97
2023-12-27T03:42:20.814Z,5.40
2023-12-27T03:44:53.525Z,4.03
2023-12-27T03:47:21.529Z,4.57
2023-12-27T03:49:49.321Z,3.90
2023-12-27T03:52:18.436Z,4.18
2023-12-27T03:54:46.017Z,3.97
2023-12-27T03:57:13.655Z,3.60
2023-12-27T03:59:41.491Z,3.97
2023-12-27T04:02:09.025Z,3.80
2023-12-27T04:04:36.715Z,5.43
2023-12-27T04:07:04.447Z,4.80
2023-12-27T04:09:33.505Z,4.90
2023-12-27T04:12:01.333Z,4.45
2023-12-27T04:14:28.969Z,4.60
2023-12-27T04:16:56.570Z,4.35
2023-12-27T04:19:24.352Z,4.03
2023-12-27T04:21:52.351Z,5.13
2023-12-27T04:24:20.109Z,4.50
2023-12-27T04:26:49.150Z,4.63
2023-12-27T04:29:16.863Z,5.43
2023-12-27T04:31:44.412Z,5.38
2023-12-27T04:34:12.127Z,4.45
2023-12-27T04:36:39.787Z,5.03
2023-12-27T04:39:07.854Z,5.10
2023-12-27T04:41:35.582Z,5.03
2023-12-27T04:44:05.325Z,4.55
2023-12-27T04:46:32.934Z,4.78
2023-12-27T04:49:00.757Z,5.57
2023-12-27T04:51:29.809Z,6.28
2023-12-27T04:53:57.620Z,5.95
2023-12-27T04:56:25.598Z,6.70
2023-12-27T04:58:53.162Z,6.68
2023-12-27T05:01:22.143Z,5.82
2023-12-27T05:03:51.804Z,5.45
2023-12-27T05:06:19.586Z,5.55
2023-12-27T05:08:47.148Z,5.25
2023-12-27T05:11:14.956Z,4.95
2023-12-27T05:13:43.504Z,5.07
2023-12-27T05:16:11.374Z,5.13
2023-12-27T05:18:41.054Z,5.32
2023-12-27T05:21:09.292Z,5.50
2023-12-27T05:23:37.120Z,4.90
2023-12-27T05:26:05.543Z,4.70
2023-12-27T05:28:33.082Z,4.72
2023-12-27T05:31:00.910Z,4.13
2023-12-27T05:33:28.783Z,4.25
2023-12-27T05:35:58.645Z,5.47
2023-12-27T05:38:26.429Z,4.70
2023-12-27T05:40:54.206Z,4.35
2023-12-27T05:43:21.892Z,4.40
2023-12-27T05:45:50.223Z,4.43
2023-12-27T05:48:17.987Z,5.03
2023-12-27T05:50:46.006Z,3.88
2023-12-27T05:53:15.396Z,4.65
2023-12-27T05:55:43.297Z,4.50
2023-12-27T05:58:10.833Z,5.30
2023-12-27T06:00:39.185Z,4.88
2023-12-27T06:03:07.017Z,5.53
2023-12-27T06:05:34.802Z,6.03
2023-12-27T06:08:02.414Z,6.00
2023-12-27T06:10:32.329Z,5.18
2023-12-27T06:12:59.929Z,5.53
2023-12-27T06:15:27.489Z,5.68
2023-12-27T06:17:55.994Z,5.80
2023-12-27T06:20:23.752Z,5.28
2023-12-27T06:22:51.374Z,5.72
2023-12-27T06:25:19.080Z,4.07
2023-12-27T06:27:47.976Z,3.92
2023-12-27T06:30:16.016Z,4.55
2023-12-27T06:32:43.726Z,4.00
2023-12-27T06:35:11.428Z,4.38
2023-12-27T06:37:40.574Z,4.05
2023-12-27T06:40:09.807Z,4.22
2023-12-27T06:42:37.578Z,4.22
2023-12-27T06:45:07.498Z,5.35
2023-12-27T06:47:35.210Z,5.53
2023-12-27T06:50:04.987Z,6.28
2023-12-27T06:52:32.694Z,6.97
2023-12-27T06:55:00.423Z,7.30
2023-12-27T06:57:28.204Z,7.47
2023-12-27T06:59:55.867Z,6.82
2023-12-27T07:02:24.917Z,6.43
2023-12-27T07:04:52.621Z,6.07
2023-12-27T07:07:20.625Z,6.40
2023-12-27T07:09:48.249Z,5.93
2023-12-27T07:12:15.980Z,5.47
2023-12-27T07:14:43.595Z,6.00
2023-12-27T07:17:11.456Z,5.65
2023-12-27T07:19:40.642Z,6.38
2023-12-27T07:22:08.407Z,6.13
2023-12-27T07:24:36.388Z,5.95
2023-12-27T07:27:04.926Z,5.78
2023-12-27T07:29:34.481Z,6.90
2023-12-27T07:32:02.278Z,6.97
2023-12-27T07:34:30.967Z,6.00
2023-12-27T07:37:00.167Z,5.03
2023-12-27T07:39:27.894Z,6.07
2023-12-27T07:41:55.505Z,5.82
2023-12-27T07:44:23.181Z,6.05
2023-12-27T07:46:50.745Z,6.93
2023-12-27T07:49:19.137Z,6.75
2023-12-27T07:51:47.118Z,7.65
2023-12-27T07:54:16.107Z,7.05
2023-12-27T07:56:43.702Z,6.25
2023-12-27T07:59:11.328Z,7.13
2023-12-27T08:01:38.986Z,6.32
2023-12-27T08:04:06.688Z,6.38
2023-12-27T08:06:36.418Z,6.30
2023-12-27T08:09:05.712Z,6.33
2023-12-27T08:11:34.916Z,6.45
2023-12-27T08:14:02.497Z,6.18
2023-12-27T08:16:30.070Z,6.45
2023-12-27T08:18:57.794Z,5.82
2023-12-27T08:21:25.845Z,7.20
2023-12-27T08:23:54.272Z,6.55
2023-12-27T08:26:22.051Z,5.90
2023-12-27T08:28:51.486Z,6.10
2023-12-27T08:31:19.174Z,6.05
2023-12-27T08:33:50.195Z,6.03
2023-12-27T08:36:17.936Z,5.97
2023-12-27T08:38:45.597Z,6.22
2023-12-27T08:41:13.698Z,6.97
2023-12-27T08:43:43.490Z,6.40
2023-12-27T08:46:14.329Z,7.10
2023-12-27T08:48:42.125Z,6.78
2023-12-27T08:51:11.190Z,6.85
2023-12-27T08:53:39.230Z,7.70
2023-12-27T08:56:07.096Z,8.20
2023-12-27T08:58:34.854Z,7.05
2023-12-27T09:01:03.340Z,7.00
2023-12-27T09:03:32.527Z,6.90
2023-12-27T09:06:00.365Z,6.68
2023-12-27T09:08:28.107Z,6.00
2023-12-27T09:10:55.880Z,6.43
2023-12-27T09:13:23.500Z,6.63
2023-12-27T09:15:51.191Z,6.78
2023-12-27T09:18:19.007Z,7.93
2023-12-27T09:20:48.063Z,7.32
2023-12-27T09:23:15.677Z,8.40
2023-12-27T09:25:43.295Z,7.57
2023-12-27T09:28:10.936Z,8.25
2023-12-27T09:30:40.246Z,7.68
2023-12-27T09:33:08.076Z,8.05
2023-12-27T09:35:35.766Z,8.30
2023-12-27T09:38:05.397Z,6.93
2023-12-27T09:40:33.107Z,7.82
2023-12-27T09:43:01.495Z,8.85
2023-12-27T09:45:31.368Z,8.38
2023-12-27T09:48:00.386Z,7.95
2023-12-27T09:50:28.692Z,8.60
2023-12-27T09:52:57.787Z,8.70
2023-12-27T09:55:26.705Z,7.25
2023-12-27T09:57:54.382Z,7.57
2023-12-27T10:00:22.428Z,7.13
2023-12-27T10:02:52.196Z,8.90
2023-12-27T10:05:22.053Z,7.80
2023-12-27T10:07:49.711Z,8.05
2023-12-27T10:10:25.120Z,7.15
2023-12-27T10:12:57.740Z,7.53
2023-12-27T10:15:25.642Z,7.22
2023-12-27T10:17:53.412Z,7.32
2023-12-27T10:20:34.365Z,7.32
2023-12-27T10:23:02.696Z,6.38
2023-12-27T10:25:30.820Z,7.75
2023-12-27T10:27:59.963Z,7.60
2023-12-27T10:30:27.806Z,7.40
2023-12-27T10:32:59.099Z,8.38
2023-12-27T10:35:26.898Z,9.30
2023-12-27T10:38:01.017Z,9.30
2023-12-27T10:40:28.802Z,9.40
2023-12-27T10:42:56.382Z,9.55
2023-12-27T10:45:25.429Z,10.02
2023-12-27T10:47:56.498Z,10.15
2023-12-27T10:50:24.416Z,10.73
2023-12-27T10:52:56.925Z,11.63
2023-12-27T10:55:24.911Z,11.57
2023-12-27T10:57:56.125Z,11.88
2023-12-27T11:00:25.964Z,12.52
2023-12-27T11:02:54.009Z,11.82
2023-12-27T11:05:23.136Z,12.13
2023-12-27T11:07:51.866Z,12.15
2023-12-27T11:10:20.759Z,12.45
2023-12-27T11:12:48.751Z,12.27
2023-12-27T11:15:16.504Z,12.18
2023-12-27T11:17:46.758Z,13.43
2023-12-27T11:20:15.543Z,11.95
2023-12-27T11:22:44.374Z,11.98
2023-12-27T11:25:12.095Z,12.27
2023-12-27T11:27:39.703Z,12.55
2023-12-27T11:30:10.947Z,12.07
2023-12-27T11:32:38.701Z,13.18
2023-12-27T11:35:09.637Z,12.13
2023-12-27T11:37:37.416Z,11.90
2023-12-27T11:40:05.363Z,11.13
2023-12-27T11:42:32.987Z,12.65
2023-12-27T11:45:00.533Z,12.85
2023-12-27T11:47:29.410Z,12.10
2023-12-27T11:50:15.723Z,11.95
2023-12-27T11:52:49.026Z,12.23
2023-12-27T11:55:19.291Z,10.50
2023-12-27T11:57:47.039Z,11.88
2023-12-27T12:00:15.266Z,9.77
2023-12-27T12:02:45.693Z,9.90
2023-12-27T12:05:18.184Z,8.95
2023-12-27T12:07:56.837Z,8.88
2023-12-27T12:10:25.924Z,9.00
2023-12-27T12:12:54.264Z,8.30
2023-12-27T12:15:22.531Z,8.68
2023-12-27T12:17:50.415Z,8.55
2023-12-27T12:20:18.145Z,9.10
2023-12-27T12:22:45.871Z,9.15
2023-12-27T12:25:15.000Z,9.95
2023-12-27T12:27:45.479Z,9.48
2023-12-27T12:30:13.936Z,10.02
2023-12-27T12:32:42.223Z,9.63
2023-12-27T12:35:10.836Z,10.30
2023-12-27T12:37:39.611Z,9.75
2023-12-27T12:40:08.763Z,9.73
2023-12-27T12:42:37.934Z,10.60
2023-12-27T12:45:06.251Z,10.90
2023-12-27T12:47:34.567Z,11.30
2023-12-27T12:50:02.722Z,11.90
2023-12-27T12:52:30.403Z,12.05
2023-12-27T12:55:01.169Z,10.80
2023-12-27T12:57:30.230Z,10.88
2023-12-27T12:59:59.183Z,9.88
2023-12-27T13:02:26.765Z,8.80
2023-12-27T13:04:54.562Z,10.02
2023-12-27T13:07:27.345Z,9.23
2023-12-27T13:09:55.519Z,8.95
2023-12-27T13:12:24.540Z,9.13
2023-12-27T13:14:52.381Z,8.30
2023-12-27T13:17:21.509Z,8.05
2023-12-27T13:19:49.131Z,7.72
2023-12-27T13:22:16.751Z,7.85
2023-12-27T13:24:44.943Z,7.68
2023-12-27T13:27:12.621Z,7.88
2023-12-27T13:29:40.285Z,7.63
2023-12-27T13:32:09.085Z,7.75
2023-12-27T13:34:38.274Z,6.97
2023-12-27T13:37:06.146Z,6.80
2023-12-27T13:39:33.831Z,7.32
2023-12-27T13:42:01.934Z,6.30
2023-12-27T13:44:30.698Z,7.10
2023-12-27T13:46:58.926Z,7.18
2023-12-27T13:49:26.844Z,6.85
2023-12-27T13:51:56.175Z,7.20
2023-12-27T13:54:29.016Z,7.72
2023-12-27T13:56:58.721Z,6.68
2023-12-27T13:59:26.303Z,6.75
2023-12-27T14:01:53.920Z,5.93
2023-12-27T14:04:21.656Z,6.75
2023-12-27T14:06:49.426Z,7.15
2023-12-27T14:09:18.457Z,5.30
2023-12-27T14:11:46.795Z,6.38
2023-12-27T14:14:14.440Z,4.85
2023-12-27T14:16:44.465Z,5.22
2023-12-27T14:19:12.757Z,4.63
2023-12-27T14:21:40.685Z,5.05
2023-12-27T14:24:10.051Z,5.30
2023-12-27T14:26:40.316Z,5.50
2023-12-27T14:29:08.001Z,5.20
2023-12-27T14:31:35.745Z,4.60
2023-12-27T14:34:03.456Z,4.60
2023-12-27T14:36:31.198Z,4.68
2023-12-27T14:39:06.856Z,4.60
2023-12-27T14:41:34.945Z,4.97
2023-12-27T14:44:05.397Z,5.22
2023-12-27T14:46:33.403Z,5.32
2023-12-27T14:49:01.009Z,4.65
2023-12-27T14:51:28.646Z,4.78
2023-12-27T14:53:56.316Z,5.38
2023-12-27T14:56:23.976Z,4.50
2023-12-27T14:58:52.801Z,4.47
2023-12-27T15:01:21.762Z,4.63
2023-12-27T15:03:49.508Z,4.28
2023-12-27T15:06:17.310Z,4.80
2023-12-27T15:08:45.586Z,5.45
2023-12-27T15:11:15.502Z,4.53
2023-12-27T15:13:43.154Z,3.85
2023-12-27T15:16:15.650Z,4.30
2023-12-27T15:18:45.229Z,4.05
2023-12-27T15:21:21.623Z,3.63
2023-12-27T15:23:49.727Z,3.90
2023-12-27T15:26:18.818Z,3.10
2023-12-27T15:28:47.351Z,4.07
2023-12-27T15:31:24.523Z,3.85
2023-12-27T15:33:53.656Z,4.00
2023-12-27T15:36:21.597Z,3.53
2023-12-27T15:38:53.656Z,3.67
2023-12-27T15:43:51.074Z,3.50
2023-12-27T15:46:19.176Z,2.83
2023-12-27T15:48:48.166Z,3.50
2023-12-27T15:51:27.931Z,3.45
2023-12-27T15:53:56.639Z,3.00
2023-12-27T15:56:25.123Z,3.50
2023-12-27T15:58:56.119Z,3.05
2023-12-27T16:01:24.508Z,2.75
2023-12-27T16:03:52.657Z,2.42
2023-12-27T16:06:20.920Z,2.33
2023-12-27T16:08:50.175Z,2.70
2023-12-27T16:11:17.878Z,2.75
2023-12-27T16:13:45.629Z,2.95
2023-12-27T16:16:13.273Z,3.05
2023-12-27T16:18:41.413Z,2.67
2023-12-27T16:21:10.266Z,2.88
2023-12-27T16:23:38.010Z,2.80
2023-12-27T16:26:07.440Z,3.17
2023-12-27T16:28:35.195Z,3.97
2023-12-27T16:31:02.852Z,3.70
2023-12-27T16:33:30.600Z,4.20
2023-12-27T16:35:58.905Z,3.80
2023-12-27T16:38:26.790Z,4.18
2023-12-27T16:40:55.955Z,4.28
2023-12-27T16:43:25.628Z,4.10
2023-12-27T16:45:53.490Z,4.47
2023-12-27T16:48:22.813Z,4.35
2023-12-27T16:50:50.899Z,4.78
2023-12-27T16:53:19.018Z,4.88
2023-12-27T16:55:47.024Z,5.43
2023-12-27T16:58:15.061Z,4.82
2023-12-27T17:00:44.354Z,4.15
2023-12-27T17:03:12.666Z,5.47
2023-12-27T17:05:40.788Z,4.35
2023-12-27T17:08:08.850Z,5.13
2023-12-27T17:10:36.850Z,4.70
2023-12-27T17:13:04.964Z,4.30
2023-12-27T17:15:33.373Z,4.57
2023-12-27T17:18:03.594Z,4.75
2023-12-27T17:20:31.398Z,4.57
2023-12-27T17:22:59.037Z,4.95
2023-12-27T17:25:28.596Z,4.65
2023-12-27T17:27:57.059Z,4.07
2023-12-27T17:30:26.660Z,3.95
2023-12-27T17:32:54.436Z,4.03
2023-12-27T17:35:24.818Z,4.00
2023-12-27T17:37:52.720Z,4.05
2023-12-27T17:40:20.958Z,4.43
2023-12-27T17:42:48.723Z,4.78
2023-12-27T17:45:17.109Z,3.90
2023-12-27T17:47:44.981Z,5.18
2023-12-27T17:50:13.086Z,5.03
2023-12-27T17:52:42.115Z,5.03
2023-12-27T17:55:10.409Z,4.88
2023-12-27T17:57:37.997Z,4.70
2023-12-27T18:00:07.058Z,5.03
2023-12-27T18:02:36.555Z,5.68
2023-12-27T18:05:04.645Z,5.25
2023-12-27T18:07:32.435Z,4.90
2023-12-27T18:10:01.415Z,4.97
2023-12-27T18:12:29.919Z,4.78
2023-12-27T18:14:57.991Z,4.93
2023-12-27T18:17:26.498Z,5.25
2023-12-27T18:19:54.174Z,4.78
2023-12-27T18:22:21.843Z,5.25
2023-12-27T18:24:49.518Z,5.47
2023-12-27T18:27:18.534Z,5.72
2023-12-27T18:29:46.180Z,6.15
2023-12-27T18:32:13.798Z,6.05
2023-12-27T18:34:41.973Z,5.78
2023-12-27T18:37:09.795Z,6.90
2023-12-27T18:39:38.043Z,5.93
2023-12-27T18:42:06.562Z,7.68
2023-12-27T18:44:36.395Z,6.32
2023-12-27T18:47:04.010Z,6.35
2023-12-27T18:49:31.845Z,5.65
2023-12-27T18:51:59.564Z,6.28
2023-12-27T18:54:27.852Z,6.53
2023-12-27T18:56:55.443Z,4.70
2023-12-27T18:59:23.049Z,4.57
2023-12-27T19:01:52.003Z,5.65
2023-12-27T19:04:19.827Z,5.97
2023-12-27T19:06:47.484Z,4.93
2023-12-27T19:09:15.252Z,4.90
2023-12-27T19:11:43.135Z,5.30
2023-12-27T19:14:10.771Z,5.05
2023-12-27T19:16:38.366Z,5.75
2023-12-27T19:19:07.399Z,6.22
2023-12-27T19:21:36.190Z,6.72
2023-12-27T19:24:03.888Z,6.78
2023-12-27T19:26:31.531Z,5.80
2023-12-27T19:28:59.220Z,6.28
2023-12-27T19:31:27.245Z,5.80
2023-12-27T19:33:56.277Z,6.07
2023-12-27T19:36:25.576Z,4.80
2023-12-27T19:38:53.208Z,4.90
2023-12-27T19:41:21.221Z,5.10
2023-12-27T19:43:48.827Z,4.95
2023-12-27T19:46:17.098Z,4.63
2023-12-27T19:48:47.128Z,4.68
2023-12-27T19:51:16.362Z,10.68
2023-12-27T19:53:45.506Z,4.82
2023-12-27T19:56:15.148Z,4.50
2023-12-27T19:58:42.825Z,3.50
2023-12-27T20:01:10.445Z,3.25
2023-12-27T20:03:39.280Z,3.28
2023-12-27T20:06:07.348Z,3.08
2023-12-27T20:08:35.037Z,2.72
2023-12-27T20:11:04.437Z,2.88
2023-12-27T20:13:32.030Z,2.80
2023-12-27T20:15:59.713Z,3.55
2023-12-27T20:18:27.364Z,3.33
2023-12-27T20:20:55.021Z,4.30
2023-12-27T20:23:22.705Z,5.15
2023-12-27T20:25:50.575Z,5.63
2023-12-27T20:28:19.467Z,6.10
2023-12-27T20:30:47.137Z,6.40
2023-12-27T20:33:16.301Z,6.35
2023-12-27T20:35:44.067Z,5.55
2023-12-27T20:38:11.771Z,5.85
2023-12-27T20:40:39.381Z,5.35
2023-12-27T20:43:06.964Z,5.97
2023-12-27T20:45:36.130Z,6.00
2023-12-27T20:48:04.763Z,5.78
2023-12-27T20:50:32.606Z,5.50
2023-12-27T20:53:00.256Z,5.13
2023-12-27T20:55:27.893Z,5.78
2023-12-27T20:57:56.215Z,5.32
2023-12-27T21:00:24.316Z,5.57
2023-12-27T21:02:53.453Z,6.25
2023-12-27T21:05:21.105Z,6.80
2023-12-27T21:07:48.739Z,5.63
2023-12-27T21:10:16.688Z,6.47
2023-12-27T21:12:44.331Z,6.43
2023-12-27T21:15:12.241Z,4.68
2023-12-27T21:17:40.256Z,6.10
2023-12-27T21:20:10.883Z,5.25
2023-12-27T21:22:38.608Z,5.97
2023-12-27T21:25:06.844Z,6.03
2023-12-27T21:27:34.932Z,6.75
2023-12-27T21:30:02.728Z,7.20
2023-12-27T21:32:30.497Z,7.00
2023-12-27T21:34:58.190Z,6.68
2023-12-27T21:37:27.688Z,7.25
2023-12-27T21:39:55.465Z,6.63
2023-12-27T21:42:23.118Z,6.97
2023-12-27T21:44:50.769Z,6.38
2023-12-27T21:47:18.762Z,5.00
2023-12-27T21:49:47.664Z,5.72
2023-12-27T21:52:15.539Z,5.20
2023-12-27T21:54:44.874Z,5.05
2023-12-27T21:57:11.469Z,7.18
2023-12-27T21:59:39.105Z,5.85
2023-12-27T22:02:06.756Z,6.07
2023-12-27T22:04:34.462Z,5.70
2023-12-27T22:07:02.127Z,4.43
2023-12-27T22:09:29.769Z,4.13
2023-12-27T22:11:58.734Z,4.00
2023-12-27T22:14:26.286Z,3.90
2023-12-27T22:16:53.854Z,4.20
2023-12-27T22:19:21.632Z,4.07
2023-12-27T22:21:51.037Z,4.70
2023-12-27T22:24:18.636Z,4.82
2023-12-27T22:26:46.247Z,4.55
2023-12-27T22:29:16.821Z,5.22
2023-12-27T22:31:44.543Z,5.38
2023-12-27T22:34:12.423Z,4.53
2023-12-27T22:36:40.672Z,5.97
2023-12-27T22:39:08.410Z,7.45
2023-12-27T22:41:36.046Z,7.25
2023-12-27T22:44:04.365Z,7.40
2023-12-27T22:46:33.316Z,7.65
2023-12-27T22:49:00.969Z,6.97
2023-12-27T22:51:28.626Z,6.55
2023-12-27T22:53:56.199Z,7.20
2023-12-27T22:56:23.846Z,6.03
2023-12-27T22:58:51.425Z,4.75
2023-12-27T23:01:19.067Z,4.80
2023-12-27T23:03:48.142Z,4.80
2023-12-27T23:06:15.894Z,4.30
2023-12-27T23:08:43.555Z,5.65
2023-12-27T23:11:11.212Z,6.65
2023-12-27T23:13:38.771Z,6.47
2023-12-27T23:16:06.873Z,6.60
2023-12-27T23:18:34.666Z,6.82
2023-12-27T23:21:03.648Z,7.07
2023-12-27T23:23:31.263Z,6.65
2023-12-27T23:25:58.830Z,7.95
2023-12-27T23:28:26.520Z,7.75
2023-12-27T23:30:54.377Z,7.28
2023-12-27T23:33:22.571Z,6.97
2023-12-27T23:35:50.330Z,6.85
2023-12-27T23:38:19.341Z,7.28
2023-12-27T23:40:47.978Z,7.18
2023-12-27T23:43:15.582Z,7.30
2023-12-27T23:45:43.204Z,6.30
2023-12-27T23:48:11.189Z,6.80
2023-12-27T23:50:38.921Z,6.82
2023-12-27T23:53:06.542Z,6.95
2023-12-27T23:55:35.549Z,6.25
2023-12-27T23:58:03.480Z,6.25
